Time;durP1;ratioP1;P1;durP2;ratioP2;P2;SDS_P1;SDS_P2;PMS_P1;PMS_P2;Temp;Humidity;BMP_temperature;BMP_pressure;BME280_temperature;BME280_humidity;BME280_pressure;Samples;Min_cycle;Max_cycle;Signal;HPM_P1;HPM_P2
2022/09/21 00:01:14;;;;;;;0.63;0.63;;;;;;;14.28;44.82;95250.00;5030002;28;20475;-63
2022/09/21 00:03:42;;;;;;;0.93;0.40;;;;;;;14.01;45.09;95254.81;5029492;28;20448;-70
2022/09/21 00:06:18;;;;;;;2.33;1.23;;;;;;;13.90;45.32;95242.72;5035228;28;20449;-70
2022/09/21 00:08:46;;;;;;;0.30;0.30;;;;;;;13.73;46.30;95258.00;5036713;28;20454;-71
2022/09/21 00:11:23;;;;;;;1.10;0.20;;;;;;;13.84;45.41;95255.09;5055560;28;20478;-71
2022/09/21 00:13:57;;;;;;;0.97;0.97;;;;;;;13.95;45.31;95255.88;5036130;28;20447;-70
2022/09/21 00:16:24;;;;;;;0.43;0.43;;;;;;;13.73;45.88;95258.81;5035944;28;20466;-65
2022/09/21 00:18:51;;;;;;;2.60;1.30;;;;;;;13.86;45.22;95249.56;5049783;28;20545;-68
2022/09/21 00:21:18;;;;;;;0.10;0.10;;;;;;;13.55;45.64;95261.19;5036101;28;20466;-69
2022/09/21 00:23:45;;;;;;;0.10;0.10;;;;;;;13.84;44.97;95257.75;5050016;28;20547;-67
2022/09/21 00:26:16;;;;;;;0.10;0.10;;;;;;;13.69;45.41;95263.03;5033432;28;20455;-66
2022/09/21 00:28:43;;;;;;;0.23;0.23;;;;;;;13.73;45.34;95252.75;5039729;28;20630;-70
2022/09/21 00:31:13;;;;;;;0.50;0.50;;;;;;;13.48;45.58;95255.41;5050537;28;20470;-69
2022/09/21 00:33:42;;;;;;;0.70;0.70;;;;;;;13.16;46.53;95248.56;5050635;28;20442;-67
2022/09/21 00:36:18;;;;;;;0.00;0.00;;;;;;;13.57;45.68;95254.63;5050555;28;20535;-69
2022/09/21 00:38:52;;;;;;;0.20;0.20;;;;;;;13.26;46.55;95244.34;5044569;28;20502;-62
2022/09/21 00:41:19;;;;;;;1.23;1.17;;;;;;;13.49;45.74;95252.50;5042721;28;20435;-64
2022/09/21 00:44:17;;;;;;;2.00;0.83;;;;;;;13.07;46.58;95255.38;5061060;28;20471;-69
2022/09/21 00:46:47;;;;;;;1.33;0.77;;;;;;;13.09;46.47;95263.81;5044995;28;20447;-64
2022/09/21 00:49:15;;;;;;;0.10;0.10;;;;;;;13.06;46.54;95253.78;5045285;28;20459;-66
2022/09/21 00:51:43;;;;;;;0.20;0.20;;;;;;;13.07;46.62;95260.66;5029423;28;20552;-64
2022/09/21 00:54:17;;;;;;;1.17;0.50;;;;;;;13.15;46.07;95247.00;5038450;28;20530;-65
2022/09/21 00:56:44;;;;;;;1.70;1.60;;;;;;;13.11;46.26;95251.19;5038303;28;20551;-70
2022/09/21 00:59:12;;;;;;;0.60;0.60;;;;;;;13.15;46.34;95246.19;5033626;28;21078;-68
2022/09/21 01:01:41;;;;;;;24.07;1.00;;;;;;;13.23;45.89;95249.09;5049875;28;20558;-69
2022/09/21 01:04:10;;;;;;;0.30;0.30;;;;;;;13.25;45.92;95248.06;5046422;28;20982;-67
2022/09/21 01:06:37;;;;;;;0.33;0.20;;;;;;;13.31;45.67;95244.34;5038812;28;20475;-66
2022/09/21 01:09:04;;;;;;;0.60;0.60;;;;;;;13.26;46.33;95250.41;5035265;28;20440;-72
2022/09/21 01:12:01;;;;;;;1.03;1.00;;;;;;;13.08;46.23;95253.56;5041551;28;21026;-65
2022/09/21 01:14:28;;;;;;;0.20;0.20;;;;;;;12.99;46.70;95257.72;5043235;28;20451;-68
2022/09/21 01:17:09;;;;;;;0.73;0.40;;;;;;;13.23;46.64;95242.25;5029487;28;21052;-73
2022/09/21 01:20:07;;;;;;;0.20;0.20;;;;;;;12.97;46.79;95242.19;5043173;28;20494;-72
2022/09/21 01:22:52;;;;;;;0.10;0.10;;;;;;;13.21;46.24;95240.66;5029730;28;20495;-63
2022/09/21 01:25:46;;;;;;;0.10;0.10;;;;;;;13.30;45.89;95232.25;5053111;28;20446;-67
2022/09/21 01:28:19;;;;;;;0.47;0.47;;;;;;;13.10;46.44;95233.81;5050735;28;20471;-68
2022/09/21 01:30:49;;;;;;;0.63;0.63;;;;;;;13.07;46.54;95233.53;5040164;28;20477;-69
2022/09/21 01:33:24;;;;;;;0.07;0.07;;;;;;;12.66;47.64;95235.31;5041615;28;20447;-64
2022/09/21 01:36:07;;;;;;;0.00;0.00;;;;;;;11.97;49.28;95223.50;5056223;28;20442;-73
2022/09/21 01:38:44;;;;;;;0.00;0.00;;;;;;;12.16;49.04;95235.13;5037940;28;20440;-69
2022/09/21 01:41:15;;;;;;;0.10;0.10;;;;;;;12.57;47.92;95234.22;5052187;28;20443;-63
2022/09/21 01:43:47;;;;;;;0.20;0.20;;;;;;;12.80;47.92;95232.97;5045094;28;20494;-69
2022/09/21 01:46:18;;;;;;;0.10;0.10;;;;;;;12.92;47.40;95231.66;5039128;28;20451;-72
2022/09/21 01:48:49;;;;;;;0.20;0.20;;;;;;;12.98;47.49;95220.09;5039038;28;20447;-73
2022/09/21 01:51:19;;;;;;;0.47;0.47;;;;;;;12.94;47.65;95229.56;5041974;28;20476;-63
2022/09/21 01:54:21;;;;;;;0.60;0.60;;;;;;;12.94;46.89;95237.44;5060877;28;21059;-72
2022/09/21 01:56:58;;;;;;;0.20;0.20;;;;;;;12.96;47.17;95230.09;5031554;28;20451;-75
2022/09/21 01:59:34;;;;;;;0.33;0.33;;;;;;;12.93;47.22;95232.47;5032586;28;20439;-73
2022/09/21 02:02:14;;;;;;;0.00;0.00;;;;;;;12.75;48.25;95233.75;5032481;28;20454;-69
2022/09/21 02:04:42;;;;;;;0.90;0.87;;;;;;;12.80;47.55;95222.44;5031700;28;20938;-69
2022/09/21 02:07:09;;;;;;;0.10;0.10;;;;;;;12.82;47.56;95234.28;5045264;28;20588;-72
2022/09/21 02:09:37;;;;;;;0.10;0.10;;;;;;;12.88;47.41;95225.34;5051243;28;20447;-68
2022/09/21 02:12:04;;;;;;;0.43;0.43;;;;;;;12.88;46.97;95235.84;5051912;28;20467;-72
2022/09/21 02:14:32;;;;;;;1.27;0.83;;;;;;;12.85;47.56;95246.91;5037554;28;21019;-68
2022/09/21 02:17:23;;;;;;;0.07;0.07;;;;;;;12.70;47.56;95241.59;5041271;28;20535;-66
2022/09/21 02:19:56;;;;;;;0.10;0.10;;;;;;;12.84;47.29;95237.44;5032463;28;20436;-66
2022/09/21 02:22:38;;;;;;;0.10;0.10;;;;;;;13.00;47.44;95233.00;5049939;28;20447;-66
2022/09/21 02:25:12;;;;;;;0.67;0.33;;;;;;;13.04;47.06;95244.59;5031909;28;20431;-72
2022/09/21 02:27:53;;;;;;;0.23;0.23;;;;;;;12.97;46.95;95244.81;5045285;28;20450;-72
2022/09/21 02:30:24;;;;;;;0.10;0.10;;;;;;;12.97;47.13;95239.56;5040403;28;20443;-71
2022/09/21 02:33:10;;;;;;;0.40;0.30;;;;;;;12.75;47.98;95246.91;5050756;28;20491;-69
2022/09/21 02:35:43;;;;;;;2.63;0.63;;;;;;;12.61;47.71;95240.53;5040656;28;20524;-63
2022/09/21 02:38:21;;;;;;;0.97;0.90;;;;;;;12.86;47.50;95247.72;5051483;28;20443;-69
2022/09/21 02:40:55;;;;;;;0.20;0.20;;;;;;;12.80;47.63;95241.66;5051501;28;20442;-69
2022/09/21 02:43:29;;;;;;;0.00;0.00;;;;;;;12.78;47.69;95241.13;5050831;28;20505;-68
2022/09/21 02:46:03;;;;;;;0.10;0.10;;;;;;;12.02;49.46;95252.41;5051424;28;20450;-67
2022/09/21 02:48:43;;;;;;;0.10;0.10;;;;;;;12.06;49.33;95240.34;5037293;28;21235;-67
2022/09/21 02:51:15;;;;;;;0.10;0.10;;;;;;;12.28;48.72;95254.09;5039206;28;20570;-72
2022/09/21 02:53:45;;;;;;;0.10;0.10;;;;;;;12.44;47.93;95247.06;5045279;28;20525;-69
2022/09/21 02:56:13;;;;;;;0.20;0.20;;;;;;;12.39;48.26;95254.94;5029596;28;21043;-68
2022/09/21 02:58:45;;;;;;;0.10;0.10;;;;;;;12.47;47.47;95247.34;5045021;28;20541;-69
2022/09/21 03:01:14;;;;;;;0.10;0.10;;;;;;;12.35;47.80;95252.03;5051498;28;20439;-66
2022/09/21 03:03:41;;;;;;;0.33;0.33;;;;;;;11.99;48.65;95240.56;5037809;28;21169;-70
2022/09/21 03:06:08;;;;;;;0.30;0.30;;;;;;;12.27;48.32;95249.88;5031580;28;20483;-70
2022/09/21 03:08:35;;;;;;;0.20;0.20;;;;;;;11.90;48.99;95249.19;5031359;28;20447;-73
2022/09/21 03:11:02;;;;;;;0.03;0.03;;;;;;;12.10;48.52;95259.78;5044671;28;20534;-71
2022/09/21 03:13:29;;;;;;;0.40;0.40;;;;;;;12.14;48.29;95256.41;5031085;28;21016;-69
2022/09/21 03:16:01;;;;;;;0.30;0.30;;;;;;;11.88;48.82;95256.50;5044801;28;20953;-68
2022/09/21 03:18:28;;;;;;;0.13;0.13;;;;;;;11.96;48.73;95254.22;5039879;28;20457;-70
2022/09/21 03:20:55;;;;;;;0.07;0.07;;;;;;;12.09;48.50;95256.38;5038715;28;20440;-72
2022/09/21 03:23:22;;;;;;;0.87;0.87;;;;;;;12.11;48.20;95256.94;5043949;28;20430;-66
2022/09/21 03:25:51;;;;;;;0.10;0.10;;;;;;;11.89;48.30;95247.59;5030930;28;20472;-67
2022/09/21 03:28:18;;;;;;;0.00;0.00;;;;;;;12.13;47.92;95251.41;5050286;28;20522;-66
2022/09/21 03:30:48;;;;;;;0.10;0.10;;;;;;;11.79;48.72;95258.03;5050465;28;20454;-67
2022/09/21 03:33:15;;;;;;;0.00;0.00;;;;;;;12.01;48.28;95248.19;5050191;28;20565;-71
2022/09/21 03:35:42;;;;;;;0.03;0.03;;;;;;;11.90;47.93;95246.56;5039573;28;20466;-73
2022/09/21 03:38:10;;;;;;;0.37;0.37;;;;;;;11.96;48.06;95250.78;5033262;28;21032;-75
2022/09/21 03:40:36;;;;;;;0.73;0.73;;;;;;;11.54;49.00;95249.97;5040961;28;20542;-69
2022/09/21 03:43:03;;;;;;;0.30;0.23;;;;;;;11.94;47.75;95260.75;5045377;28;20930;-73
2022/09/21 03:45:30;;;;;;;0.17;0.17;;;;;;;11.24;49.84;95256.56;5050006;28;20447;-73
2022/09/21 03:47:58;;;;;;;0.77;0.77;;;;;;;11.38;49.70;95256.97;5036359;28;20436;-68
2022/09/21 03:50:27;;;;;;;0.47;0.47;;;;;;;11.51;49.24;95258.38;5030734;28;20439;-71
2022/09/21 03:52:55;;;;;;;0.10;0.10;;;;;;;11.81;48.26;95261.19;5030105;28;20479;-68
2022/09/21 03:55:22;;;;;;;0.10;0.10;;;;;;;11.85;47.83;95257.03;5043705;28;20560;-66
2022/09/21 03:57:49;;;;;;;0.00;0.00;;;;;;;12.07;47.26;95262.94;5030593;28;20444;-71
2022/09/21 04:00:16;;;;;;;0.33;0.33;;;;;;;11.87;48.05;95266.25;5031012;28;20443;-69
2022/09/21 04:02:43;;;;;;;0.10;0.10;;;;;;;11.45;49.25;95264.59;5039887;28;20509;-62
2022/09/21 04:05:13;;;;;;;0.20;0.20;;;;;;;11.45;48.54;95272.47;5048511;28;20450;-71
2022/09/21 04:07:42;;;;;;;0.30;0.30;;;;;;;11.15;49.25;95247.59;5046440;28;20455;-72
2022/09/21 04:10:11;;;;;;;1.03;0.93;;;;;;;11.12;49.58;95258.59;5051667;28;20473;-71
2022/09/21 04:12:43;;;;;;;0.30;0.27;;;;;;;11.51;48.79;95271.47;5041393;28;20495;-65
2022/09/21 04:15:12;;;;;;;0.03;0.03;;;;;;;11.58;48.46;95270.22;5059478;28;20501;-64
2022/09/21 04:17:40;;;;;;;0.37;0.37;;;;;;;11.48;48.47;95261.50;5039324;28;20475;-64
2022/09/21 04:20:07;;;;;;;5.60;1.30;;;;;;;10.90;53.05;95270.97;5050273;28;20453;-72
2022/09/21 04:22:35;;;;;;;0.00;0.00;;;;;;;10.92;53.77;95268.88;5035430;28;20452;-68
2022/09/21 04:25:09;;;;;;;0.20;0.20;;;;;;;10.76;54.03;95267.16;5050001;28;20430;-71
2022/09/21 04:27:35;;;;;;;0.30;0.30;;;;;;;10.92;53.58;95263.66;5049578;28;20439;-74
2022/09/21 04:30:03;;;;;;;0.03;0.03;;;;;;;11.00;53.22;95265.81;5050140;28;20467;-72
2022/09/21 04:32:30;;;;;;;0.97;0.93;;;;;;;11.63;50.28;95269.47;5042993;28;20479;-68
2022/09/21 04:34:57;;;;;;;0.10;0.10;;;;;;;11.22;51.45;95263.91;5029824;28;20502;-67
2022/09/21 04:37:24;;;;;;;0.37;0.37;;;;;;;11.08;53.78;95267.97;5029636;28;20440;-67
2022/09/21 04:39:52;;;;;;;0.20;0.20;;;;;;;11.63;51.41;95275.50;5032696;28;20492;-67
2022/09/21 04:42:19;;;;;;;0.97;0.80;;;;;;;11.12;52.41;95258.59;5040652;28;20439;-72
2022/09/21 04:44:46;;;;;;;0.10;0.10;;;;;;;10.88;52.88;95267.81;5045084;28;20502;-68
2022/09/21 04:47:13;;;;;;;0.20;0.20;;;;;;;11.54;50.68;95265.72;5058252;28;20439;-63
2022/09/21 04:49:41;;;;;;;0.00;0.00;;;;;;;11.97;49.33;95276.78;5055422;28;20446;-68
2022/09/21 04:52:07;;;;;;;0.00;0.00;;;;;;;11.56;50.33;95279.38;5035042;28;20514;-70
2022/09/21 04:54:34;;;;;;;0.10;0.10;;;;;;;11.67;49.78;95276.63;5049346;28;20542;-71
2022/09/21 04:57:01;;;;;;;0.93;0.90;;;;;;;11.80;50.00;95291.13;5034792;28;20448;-68
2022/09/21 04:59:28;;;;;;;7.93;1.70;;;;;;;11.86;49.80;95283.03;5037988;28;20442;-70
2022/09/21 05:01:55;;;;;;;0.20;0.20;;;;;;;11.87;49.98;95275.94;5053209;28;20542;-70
2022/09/21 05:04:22;;;;;;;0.30;0.30;;;;;;;12.24;49.31;95287.19;5039785;28;20447;-70
2022/09/21 05:06:48;;;;;;;0.20;0.20;;;;;;;11.96;50.07;95290.19;5053955;28;20449;-67
2022/09/21 05:12:01;;;;;;;0.20;0.20;;;;;;;12.02;49.69;95283.94;5044443;28;20544;-67
2022/09/21 05:14:28;;;;;;;0.20;0.20;;;;;;;12.12;49.12;95287.41;5049138;28;20440;-71
2022/09/21 05:16:55;;;;;;;0.87;0.33;;;;;;;12.00;50.21;95286.00;5043252;28;20563;-66
2022/09/21 05:19:22;;;;;;;0.10;0.10;;;;;;;11.66;53.76;95288.16;5052782;28;20526;-73
2022/09/21 05:21:49;;;;;;;0.53;0.43;;;;;;;11.87;53.02;95291.72;5044598;28;20455;-70
2022/09/21 05:24:16;;;;;;;0.57;0.57;;;;;;;11.79;52.57;95274.59;5038546;28;20442;-64
2022/09/21 05:26:43;;;;;;;1.27;0.90;;;;;;;12.32;50.97;95284.06;5055494;28;20451;-64
2022/09/21 05:29:10;;;;;;;0.10;0.10;;;;;;;12.30;48.79;95286.16;5047425;28;20545;-66
2022/09/21 05:31:47;;;;;;;0.13;0.13;;;;;;;12.09;49.42;95281.84;5039670;28;20446;-73
2022/09/21 05:34:31;;;;;;;0.13;0.13;;;;;;;12.32;49.11;95284.06;5041787;28;20455;-69
2022/09/21 05:37:11;;;;;;;0.10;0.10;;;;;;;12.45;48.70;95283.59;5042118;28;21032;-69
2022/09/21 05:39:39;;;;;;;0.30;0.30;;;;;;;12.70;48.11;95280.28;5055582;28;20972;-70
2022/09/21 05:42:06;;;;;;;1.40;1.27;;;;;;;12.41;49.20;95287.78;5055061;28;21019;-72
2022/09/21 05:44:33;;;;;;;0.30;0.30;;;;;;;12.48;49.25;95290.97;5039234;28;20471;-71
2022/09/21 05:47:14;;;;;;;0.50;0.50;;;;;;;12.74;48.47;95279.50;5046936;28;20432;-69
2022/09/21 05:50:04;;;;;;;0.63;0.63;;;;;;;12.84;48.48;95282.16;5032867;28;20529;-71
2022/09/21 05:52:52;;;;;;;0.00;0.00;;;;;;;12.78;48.83;95277.94;5044670;28;20501;-70
2022/09/21 05:55:30;;;;;;;0.30;0.30;;;;;;;12.99;48.61;95273.50;5040911;28;20492;-68
2022/09/21 05:58:09;;;;;;;0.10;0.10;;;;;;;13.43;47.50;95276.47;5040854;28;20531;-69
2022/09/21 06:01:04;;;;;;;0.20;0.20;;;;;;;13.89;45.96;95270.09;5051403;28;20466;-69
2022/09/21 06:03:34;;;;;;;0.20;0.20;;;;;;;13.44;47.23;95267.50;5044315;28;20809;-68
2022/09/21 06:06:02;;;;;;;0.37;0.37;;;;;;;13.53;47.01;95268.56;5038339;28;20444;-74
2022/09/21 06:08:29;;;;;;;0.10;0.10;;;;;;;13.41;48.89;95278.56;5052001;28;20998;-69
2022/09/21 06:10:56;;;;;;;0.20;0.20;;;;;;;13.52;48.24;95272.25;5048067;28;20444;-70
2022/09/21 06:13:23;;;;;;;0.00;0.00;;;;;;;13.56;48.96;95279.34;5041404;28;21043;-69
2022/09/21 06:15:50;;;;;;;0.40;0.40;;;;;;;13.58;47.49;95263.28;5037473;28;20435;-67
2022/09/21 06:18:17;;;;;;;0.33;0.33;;;;;;;13.46;48.52;95270.66;5039773;28;20437;-70
2022/09/21 06:20:44;;;;;;;0.37;0.37;;;;;;;13.57;48.81;95275.69;5052022;28;20949;-71
2022/09/21 06:23:13;;;;;;;0.10;0.10;;;;;;;13.82;48.44;95282.75;5046251;28;20448;-72
2022/09/21 06:25:40;;;;;;;0.03;0.03;;;;;;;13.80;48.28;95279.59;5032177;28;20444;-69
2022/09/21 06:28:10;;;;;;;2.70;2.23;;;;;;;13.98;47.82;95281.66;5050654;28;20522;-67
2022/09/21 06:30:39;;;;;;;1.17;1.10;;;;;;;14.40;47.04;95290.03;5041498;28;20457;-68
2022/09/21 06:33:07;;;;;;;0.20;0.20;;;;;;;14.43;46.36;95273.69;5049112;28;20482;-69
2022/09/21 06:35:35;;;;;;;0.50;0.50;;;;;;;14.80;46.20;95284.56;5053615;28;20449;-67
2022/09/21 06:38:05;;;;;;;0.67;0.40;;;;;;;14.51;46.29;95291.56;5038591;28;20448;-69
2022/09/21 06:40:36;;;;;;;1.07;0.87;;;;;;;14.94;46.32;95285.53;5051996;28;20535;-71
2022/09/21 06:43:04;;;;;;;0.40;0.40;;;;;;;15.41;44.65;95294.78;5056773;28;20569;-73
2022/09/21 06:45:31;;;;;;;0.40;0.40;;;;;;;14.78;44.94;95284.06;5030304;28;20717;-73
2022/09/21 06:47:58;;;;;;;0.93;0.60;;;;;;;15.12;45.51;95279.66;5045169;28;20446;-68
2022/09/21 06:50:25;;;;;;;0.53;0.53;;;;;;;15.04;46.25;95289.97;5032075;28;20512;-72
2022/09/21 06:52:53;;;;;;;0.23;0.23;;;;;;;15.58;44.58;95284.63;5043106;28;20474;-70
2022/09/21 06:55:19;;;;;;;0.27;0.27;;;;;;;15.48;44.97;95295.25;5046706;28;20862;-69
2022/09/21 06:57:46;;;;;;;0.10;0.10;;;;;;;15.71;45.34;95284.00;5037547;28;20447;-68
2022/09/21 07:00:13;;;;;;;0.10;0.10;;;;;;;15.83;44.80;95294.97;5038545;28;20958;-66
2022/09/21 07:02:44;;;;;;;0.30;0.30;;;;;;;16.13;43.49;95302.59;5049961;28;20449;-75
2022/09/21 07:05:11;;;;;;;0.17;0.17;;;;;;;16.12;44.19;95301.84;5039896;28;20447;-65
2022/09/21 07:07:39;;;;;;;0.10;0.10;;;;;;;16.35;43.00;95287.03;5048620;28;20530;-69
2022/09/21 07:10:07;;;;;;;0.73;0.73;;;;;;;16.62;42.80;95305.84;5050901;28;20465;-67
2022/09/21 07:12:43;;;;;;;0.50;0.40;;;;;;;16.72;42.76;95295.13;5047381;28;21002;-75
2022/09/21 07:15:10;;;;;;;0.03;0.03;;;;;;;16.83;41.97;95293.91;5040508;28;20496;-71
2022/09/21 07:17:38;;;;;;;0.37;0.37;;;;;;;16.55;44.01;95292.13;5048248;28;20451;-69
2022/09/21 07:20:06;;;;;;;0.47;0.40;;;;;;;16.83;42.92;95295.78;5039082;28;20446;-72
2022/09/21 07:22:34;;;;;;;0.10;0.10;;;;;;;16.67;42.89;95287.25;5049316;28;20447;-72
2022/09/21 07:25:03;;;;;;;0.40;0.40;;;;;;;16.78;42.33;95291.34;5037414;28;21016;-76
2022/09/21 07:27:31;;;;;;;0.20;0.20;;;;;;;16.86;42.69;95288.03;5050815;28;20439;-73
2022/09/21 07:29:58;;;;;;;0.10;0.10;;;;;;;16.50;43.18;95291.41;5043329;28;21038;-68
2022/09/21 07:32:25;;;;;;;0.27;0.27;;;;;;;16.67;42.91;95286.44;5042037;28;20471;-72
2022/09/21 07:34:55;;;;;;;0.10;0.10;;;;;;;16.59;42.85;95285.22;5050421;28;20447;-73
2022/09/21 07:37:26;;;;;;;0.10;0.10;;;;;;;15.83;43.93;95287.06;5050498;28;20447;-71
2022/09/21 07:39:53;;;;;;;0.93;0.53;;;;;;;16.07;43.93;95298.47;5033108;28;20841;-72
2022/09/21 07:42:21;;;;;;;0.10;0.10;;;;;;;16.49;43.41;95295.94;5030902;28;20437;-67
2022/09/21 07:44:48;;;;;;;0.00;0.00;;;;;;;16.74;42.80;95289.53;5043990;28;20471;-68
2022/09/21 07:47:16;;;;;;;0.40;0.40;;;;;;;16.89;42.49;95295.44;5049481;28;20496;-70
2022/09/21 07:49:45;;;;;;;0.50;0.50;;;;;;;15.98;43.48;95294.84;5049087;28;20821;-62
2022/09/21 07:52:14;;;;;;;0.37;0.37;;;;;;;16.41;42.66;95293.88;5039187;28;20440;-64
2022/09/21 07:54:41;;;;;;;0.10;0.10;;;;;;;16.33;43.08;95270.66;5047226;28;20479;-71
2022/09/21 07:59:57;;;;;;;0.10;0.10;;;;;;;16.51;42.79;95293.78;5039949;28;20526;-67
2022/09/21 08:02:24;;;;;;;0.13;0.13;;;;;;;15.90;43.37;95292.81;5033556;28;20814;-67
2022/09/21 08:04:52;;;;;;;0.10;0.10;;;;;;;16.61;42.74;95283.06;5040353;28;20454;-64
2022/09/21 08:07:19;;;;;;;0.77;0.73;;;;;;;16.24;43.41;95282.94;5057074;28;20442;-72
2022/09/21 08:09:48;;;;;;;0.17;0.17;;;;;;;16.93;41.90;95280.53;5042658;28;20471;-65
2022/09/21 08:12:17;;;;;;;1.70;0.83;;;;;;;16.93;41.34;95280.53;5038636;28;20440;-69
2022/09/21 08:14:44;;;;;;;2.10;0.57;;;;;;;16.44;42.47;95287.22;5030229;28;20462;-67
2022/09/21 08:17:11;;;;;;;0.43;0.43;;;;;;;16.56;41.98;95280.50;5042334;28;20514;-69
2022/09/21 08:19:38;;;;;;;0.17;0.17;;;;;;;16.54;41.88;95285.28;5035964;28;20449;-68
2022/09/21 08:22:05;;;;;;;0.10;0.10;;;;;;;16.85;41.04;95289.13;5050674;28;20443;-65
2022/09/21 08:24:32;;;;;;;0.10;0.10;;;;;;;16.72;40.91;95283.75;5046144;28;20439;-73
2022/09/21 08:26:59;;;;;;;0.20;0.20;;;;;;;16.74;42.09;95287.69;5038976;28;20790;-72
2022/09/21 08:29:26;;;;;;;0.10;0.10;;;;;;;17.55;40.65;95283.94;5048015;28;20530;-66
2022/09/21 08:31:53;;;;;;;0.20;0.20;;;;;;;16.99;40.93;95275.97;5037198;28;20475;-68
2022/09/21 08:34:22;;;;;;;0.10;0.10;;;;;;;17.26;40.48;95273.47;5037969;28;20582;-72
2022/09/21 08:36:48;;;;;;;0.10;0.10;;;;;;;17.39;40.92;95271.97;5053270;28;20431;-71
2022/09/21 08:39:21;;;;;;;0.10;0.10;;;;;;;17.18;40.54;95264.31;5041346;28;20581;-72
2022/09/21 08:41:59;;;;;;;0.43;0.20;;;;;;;17.08;40.09;95272.41;5039102;28;20490;-69
2022/09/21 08:44:49;;;;;;;0.07;0.07;;;;;;;16.71;40.37;95261.00;5053759;28;20466;-73
2022/09/21 08:47:22;;;;;;;0.83;0.80;;;;;;;17.10;39.54;95270.25;5033734;28;20526;-71
2022/09/21 08:49:57;;;;;;;0.10;0.10;;;;;;;17.42;39.03;95263.44;5032382;28;20506;-67
2022/09/21 08:52:25;;;;;;;0.30;0.30;;;;;;;17.60;39.41;95257.34;5041637;28;20902;-66
2022/09/21 08:55:17;;;;;;;0.03;0.03;;;;;;;17.81;38.65;95254.06;5058339;28;20534;-62
2022/09/21 08:57:44;;;;;;;0.40;0.40;;;;;;;17.84;38.54;95253.50;5051886;28;20439;-71
2022/09/21 09:00:17;;;;;;;0.20;0.20;;;;;;;17.64;38.32;95255.69;5047471;28;20891;-74
2022/09/21 09:03:03;;;;;;;0.00;0.00;;;;;;;18.00;37.49;95246.03;5034308;28;20448;-70
2022/09/21 09:05:33;;;;;;;0.10;0.10;;;;;;;18.26;37.12;95238.41;5047336;28;20489;-74
2022/09/21 09:08:21;;;;;;;0.77;0.40;;;;;;;18.27;38.34;95235.44;5046896;28;20464;-67
2022/09/21 09:10:56;;;;;;;0.10;0.10;;;;;;;18.55;36.74;95237.06;5049537;28;20443;-73
2022/09/21 09:13:45;;;;;;;0.43;0.40;;;;;;;18.74;36.55;95227.09;5053061;28;20478;-68
2022/09/21 09:16:28;;;;;;;0.27;0.27;;;;;;;19.28;36.35;95233.34;5055314;28;20972;-63
2022/09/21 09:19:18;;;;;;;0.10;0.10;;;;;;;18.62;36.01;95236.66;5055075;28;20883;-69
2022/09/21 09:21:45;;;;;;;0.20;0.20;;;;;;;18.21;35.75;95226.00;5036903;28;20439;-66
2022/09/21 09:24:29;;;;;;;0.20;0.20;;;;;;;18.41;37.29;95219.53;5038739;28;20526;-72
2022/09/21 09:27:06;;;;;;;0.20;0.20;;;;;;;18.84;36.23;95218.13;5041273;28;20529;-69
2022/09/21 09:29:36;;;;;;;0.10;0.10;;;;;;;18.17;36.06;95220.50;5038386;28;20443;-71
2022/09/21 09:32:08;;;;;;;0.00;0.00;;;;;;;18.65;36.66;95220.91;5052549;28;20485;-65
2022/09/21 09:34:41;;;;;;;0.10;0.10;;;;;;;19.09;35.17;95209.59;5052472;28;20560;-69
2022/09/21 09:37:16;;;;;;;0.10;0.10;;;;;;;19.13;34.84;95215.88;5052375;28;20435;-72
2022/09/21 09:39:52;;;;;;;0.30;0.30;;;;;;;18.21;35.29;95204.78;5038422;28;20443;-66
2022/09/21 09:42:25;;;;;;;0.10;0.10;;;;;;;18.38;35.27;95207.63;5052294;28;20442;-67
2022/09/21 09:45:33;;;;;;;0.10;0.10;;;;;;;18.89;35.46;95205.53;5037306;28;20487;-69
2022/09/21 09:48:18;;;;;;;3.60;1.80;;;;;;;18.81;35.50;95200.91;5037648;28;21048;-65
2022/09/21 09:50:45;;;;;;;0.20;0.20;;;;;;;17.81;36.38;95197.63;5043609;28;20977;-66
2022/09/21 09:53:17;;;;;;;0.67;0.67;;;;;;;17.01;37.10;95205.00;5032906;28;20566;-65
2022/09/21 09:55:46;;;;;;;0.40;0.40;;;;;;;18.22;35.65;95195.75;5045136;28;20479;-68
2022/09/21 09:58:43;;;;;;;1.23;0.53;;;;;;;18.52;34.53;95192.50;5042349;28;21158;-66
2022/09/21 10:01:38;;;;;;;0.10;0.10;;;;;;;18.93;34.68;95198.53;5052828;28;20454;-65
2022/09/21 10:04:07;;;;;;;0.10;0.10;;;;;;;19.46;33.47;95189.88;5052128;28;20785;-71
2022/09/21 10:06:34;;;;;;;0.10;0.10;;;;;;;19.01;34.95;95181.88;5043689;28;20439;-68
2022/09/21 10:09:17;;;;;;;0.10;0.10;;;;;;;19.45;34.03;95185.66;5047250;28;20447;-75
2022/09/21 10:11:44;;;;;;;0.10;0.10;;;;;;;19.25;34.87;95175.50;5051874;28;20951;-69
2022/09/21 10:14:17;;;;;;;0.07;0.07;;;;;;;19.23;34.58;95175.00;5036495;28;20584;-74
2022/09/21 10:16:45;;;;;;;0.23;0.23;;;;;;;19.29;34.73;95177.22;5032100;28;20455;-69
2022/09/21 10:19:20;;;;;;;0.30;0.30;;;;;;;19.26;34.11;95161.91;5045839;28;20537;-68
2022/09/21 10:21:50;;;;;;;0.20;0.20;;;;;;;19.48;33.28;95180.53;5040307;28;20448;-70
2022/09/21 10:24:32;;;;;;;0.10;0.10;;;;;;;18.84;33.87;95168.47;5052363;28;20439;-76
2022/09/21 10:27:04;;;;;;;0.20;0.20;;;;;;;18.38;34.60;95167.06;5031981;28;20444;-65
2022/09/21 10:29:39;;;;;;;0.27;0.27;;;;;;;18.96;33.74;95152.78;5045421;28;20458;-68
2022/09/21 10:32:12;;;;;;;0.10;0.10;;;;;;;19.27;33.81;95157.38;5031847;28;20451;-70
2022/09/21 10:34:59;;;;;;;0.10;0.10;;;;;;;19.58;34.45;95156.31;5030989;28;20569;-68
2022/09/21 10:37:28;;;;;;;0.20;0.20;;;;;;;20.11;32.75;95161.56;5031583;28;20517;-65
2022/09/21 10:39:56;;;;;;;0.10;0.10;;;;;;;20.10;32.31;95155.47;5048984;28;20527;-68
2022/09/21 10:42:22;;;;;;;0.10;0.10;;;;;;;20.47;30.30;95148.88;5051479;28;20534;-68
2022/09/21 10:45:03;;;;;;;0.10;0.10;;;;;;;20.17;31.31;95139.09;5037392;28;20559;-66
2022/09/21 10:47:38;;;;;;;0.40;0.40;;;;;;;20.18;31.17;95146.75;5041710;28;20501;-67
2022/09/21 10:50:19;;;;;;;0.10;0.10;;;;;;;20.56;30.18;95135.56;5045491;28;20486;-70
2022/09/21 10:52:47;;;;;;;0.10;0.10;;;;;;;20.12;30.02;95139.19;5042650;28;20966;-67
2022/09/21 10:55:20;;;;;;;0.43;0.43;;;;;;;19.71;30.05;95136.84;5041961;28;20514;-68
2022/09/21 10:57:49;;;;;;;0.10;0.10;;;;;;;18.79;30.78;95136.72;5037055;28;20447;-66
2022/09/21 11:00:33;;;;;;;0.10;0.10;;;;;;;18.95;29.99;95137.16;5044048;28;20446;-66
2022/09/21 11:03:25;;;;;;;0.10;0.10;;;;;;;19.53;30.02;95145.03;5038465;28;20434;-69
2022/09/21 11:05:53;;;;;;;0.10;0.10;;;;;;;18.51;31.64;95129.13;5036556;28;20446;-64
2022/09/21 11:08:31;;;;;;;0.10;0.10;;;;;;;19.13;31.27;95118.38;5045453;28;20553;-66
2022/09/21 11:11:20;;;;;;;0.10;0.10;;;;;;;18.92;31.72;95125.25;5034537;28;20439;-71
2022/09/21 11:14:04;;;;;;;0.10;0.10;;;;;;;19.93;30.63;95117.38;5038508;28;20498;-74
2022/09/21 11:16:53;;;;;;;0.10;0.10;;;;;;;20.13;30.61;95124.78;5030532;28;20531;-73
2022/09/21 11:19:35;;;;;;;0.10;0.10;;;;;;;19.42;30.78;95122.47;5046358;28;20442;-68
2022/09/21 11:22:13;;;;;;;0.20;0.20;;;;;;;19.45;30.34;95117.31;5050316;28;20973;-71
2022/09/21 11:24:54;;;;;;;0.10;0.10;;;;;;;20.13;29.35;95127.44;5046285;28;20448;-67
2022/09/21 11:27:31;;;;;;;0.17;0.17;;;;;;;19.39;29.89;95128.41;5030599;28;20818;-71
2022/09/21 11:30:03;;;;;;;0.20;0.20;;;;;;;19.03;30.13;95126.56;5035729;28;20523;-66
2022/09/21 11:32:36;;;;;;;0.20;0.20;;;;;;;19.34;29.26;95128.53;5050159;28;20478;-67
2022/09/21 11:35:23;;;;;;;0.20;0.20;;;;;;;19.40;29.10;95121.97;5044762;28;20483;-68
2022/09/21 11:38:03;;;;;;;0.20;0.20;;;;;;;19.48;29.99;95122.03;5043909;28;20439;-65
2022/09/21 11:40:39;;;;;;;0.00;0.00;;;;;;;19.44;30.07;95088.41;5038572;28;20453;-68
2022/09/21 11:43:34;;;;;;;0.10;0.10;;;;;;;20.53;29.78;95105.00;5049617;28;20465;-70
2022/09/21 11:46:16;;;;;;;0.20;0.20;;;;;;;20.63;29.31;95120.69;5050068;28;20520;-61
2022/09/21 11:49:04;;;;;;;0.20;0.20;;;;;;;21.12;31.11;95128.22;5044242;28;20451;-69
2022/09/21 11:52:09;;;;;;;0.10;0.10;;;;;;;20.81;33.97;95143.56;5030497;28;20947;-70
2022/09/21 11:54:55;;;;;;;0.20;0.20;;;;;;;20.47;34.03;95153.41;5049865;28;20587;-67
2022/09/21 11:57:41;;;;;;;0.20;0.20;;;;;;;19.94;34.44;95150.88;5033229;28;20875;-67
2022/09/21 12:00:14;;;;;;;0.10;0.10;;;;;;;20.21;34.05;95145.34;5050362;28;20980;-69
2022/09/21 12:03:02;;;;;;;0.10;0.10;;;;;;;19.84;35.15;95145.81;5030800;28;20447;-71
2022/09/21 12:05:35;;;;;;;0.33;0.33;;;;;;;20.14;34.87;95150.31;5029886;28;20459;-74